Time;durP1;ratioP1;P1;durP2;ratioP2;P2;SDS_P1;SDS_P2;PMS_P1;PMS_P2;Temp;Humidity;BMP_temperature;BMP_pressure;BME280_temperature;BME280_humidity;BME280_pressure;Samples;Min_cycle;Max_cycle;Signal;HPM_P1;HPM_P2
2022/09/07 00:00:07;;;;;;;1.15;0.65;;;15.30;46.40;;;;;;4881989;29;20198;-34
2022/09/07 00:02:38;;;;;;;0.80;0.70;;;15.40;46.40;;;;;;4882327;29;20300;-34
2022/09/07 00:05:09;;;;;;;1.23;0.68;;;15.40;46.30;;;;;;4882201;29;20228;-34
2022/09/07 00:07:40;;;;;;;1.05;0.70;;;15.50;46.20;;;;;;4881844;29;20205;-34
2022/09/07 00:10:11;;;;;;;1.30;0.60;;;15.50;46.10;;;;;;4881963;29;20217;-45
2022/09/07 00:12:44;;;;;;;1.38;0.60;;;15.50;45.80;;;;;;4880966;29;20209;-34
2022/09/07 00:15:14;;;;;;;1.20;0.60;;;15.60;45.60;;;;;;4877779;29;20569;-33
2022/09/07 00:17:45;;;;;;;1.15;0.73;;;15.60;45.40;;;;;;4878584;29;20206;-35
2022/09/07 00:20:17;;;;;;;1.25;0.60;;;15.70;45.10;;;;;;4878565;29;20198;-40
2022/09/07 00:22:48;;;;;;;0.93;0.60;;;15.70;45.10;;;;;;4878056;29;20204;-35
2022/09/07 00:25:19;;;;;;;1.88;0.40;;;15.80;45.20;;;;;;4915024;23;20252;-35
2022/09/07 00:27:51;;;;;;;1.25;0.70;;;15.80;45.20;;;;;;4897481;29;20205;-48
2022/09/07 00:30:22;;;;;;;1.08;0.77;;;15.80;45.10;;;;;;4896561;29;20572;-36
2022/09/07 00:32:53;;;;;;;1.70;0.70;;;15.90;44.90;;;;;;4896852;29;20201;-35
2022/09/07 00:35:23;;;;;;;0.77;0.60;;;15.90;45.00;;;;;;4896109;29;20233;-39
2022/09/07 00:37:54;;;;;;;1.75;0.68;;;16.00;45.10;;;;;;4893760;29;20670;-36
2022/09/07 00:40:25;;;;;;;0.45;0.40;;;16.00;45.30;;;;;;4889227;29;20197;-37
2022/09/07 00:42:57;;;;;;;0.75;0.60;;;16.10;45.40;;;;;;4878109;29;20672;-48
2022/09/07 00:45:28;;;;;;;1.10;0.65;;;16.10;45.10;;;;;;4877947;29;20221;-49
2022/09/07 00:48:02;;;;;;;1.02;0.60;;;16.20;45.00;;;;;;4878122;29;20210;-50
2022/09/07 00:50:36;;;;;;;1.65;0.70;;;16.20;44.80;;;;;;4878170;29;20205;-41
2022/09/07 00:53:10;;;;;;;0.70;0.50;;;16.30;44.70;;;;;;4877862;29;20208;-50
2022/09/07 00:55:44;;;;;;;1.35;0.60;;;16.30;44.60;;;;;;4877845;29;20229;-48
2022/09/07 00:58:17;;;;;;;0.40;0.40;;;16.30;44.60;;;;;;4878354;29;20216;-56
2022/09/07 01:00:49;;;;;;;1.13;0.60;;;16.30;44.40;;;;;;4876568;29;20190;-34
2022/09/07 01:03:24;;;;;;;2.55;0.70;;;16.40;44.40;;;;;;4877286;29;20197;-48
2022/09/07 01:05:58;;;;;;;0.40;0.40;;;16.40;44.30;;;;;;4877645;29;20702;-35
2022/09/07 01:08:29;;;;;;;0.50;0.50;;;16.40;44.20;;;;;;4877386;29;20205;-55
2022/09/07 01:11:01;;;;;;;2.20;0.60;;;16.50;44.20;;;;;;4877943;29;20205;-39
2022/09/07 01:13:34;;;;;;;0.40;0.40;;;16.50;44.10;;;;;;4877414;29;20202;-38
2022/09/07 01:16:14;;;;;;;1.48;0.70;;;16.60;44.10;;;;;;4876863;29;20300;-35
2022/09/07 01:18:52;;;;;;;0.68;0.47;;;16.60;43.90;;;;;;4877913;29;20257;-34
2022/09/07 01:21:33;;;;;;;1.45;0.50;;;16.60;43.90;;;;;;4877431;29;20204;-57
2022/09/07 01:24:39;;;;;;;1.75;0.60;;;16.70;43.90;;;;;;4898461;23;20236;-35
2022/09/07 01:27:44;;;;;;;0.60;0.40;;;16.70;43.90;;;;;;4884843;29;20208;-39
2022/09/07 01:30:19;;;;;;;1.30;0.60;;;16.80;43.80;;;;;;4895941;29;20204;-36
2022/09/07 01:33:04;;;;;;;0.73;0.60;;;16.80;43.70;;;;;;4895899;29;20562;-36
2022/09/07 01:35:41;;;;;;;1.15;0.70;;;16.90;43.60;;;;;;4895628;29;20239;-35
2022/09/07 01:38:20;;;;;;;1.17;0.60;;;16.90;43.50;;;;;;4890226;29;20207;-39
2022/09/07 01:40:58;;;;;;;0.77;0.52;;;16.90;43.60;;;;;;4876714;29;20690;-37
2022/09/07 01:43:35;;;;;;;0.57;0.50;;;17.00;43.60;;;;;;4876829;29;20231;-34
2022/09/07 01:46:12;;;;;;;0.68;0.60;;;17.00;43.50;;;;;;4877745;29;20289;-35
2022/09/07 01:48:44;;;;;;;1.83;0.50;;;17.10;43.50;;;;;;4877058;29;20208;-35
2022/09/07 01:51:16;;;;;;;0.70;0.50;;;17.10;43.50;;;;;;4875264;29;20205;-35
2022/09/07 01:53:52;;;;;;;0.73;0.50;;;17.10;43.50;;;;;;4858891;29;20681;-34
2022/09/07 01:56:31;;;;;;;1.00;0.50;;;17.10;43.40;;;;;;4857963;29;20241;-34
2022/09/07 01:59:05;;;;;;;0.88;0.55;;;17.20;43.30;;;;;;4857525;29;20206;-39
2022/09/07 02:01:41;;;;;;;0.70;0.50;;;17.20;43.20;;;;;;4858055;29;20666;-34
2022/09/07 02:04:14;;;;;;;0.65;0.50;;;17.20;43.20;;;;;;4857865;29;20206;-36
2022/09/07 02:06:48;;;;;;;1.20;0.60;;;17.30;43.00;;;;;;4858203;29;20237;-38
2022/09/07 02:09:24;;;;;;;0.60;0.50;;;17.30;43.00;;;;;;4871942;29;20201;-34
2022/09/07 02:11:55;;;;;;;0.93;0.70;;;17.30;42.90;;;;;;4876152;29;20205;-35
2022/09/07 02:14:30;;;;;;;0.68;0.52;;;17.40;42.80;;;;;;4876486;29;20202;-35
2022/09/07 02:17:05;;;;;;;1.15;0.60;;;17.40;42.80;;;;;;4876172;29;20615;-34
2022/09/07 02:19:39;;;;;;;0.93;0.75;;;17.40;42.80;;;;;;4876415;29;20217;-45
2022/09/07 02:22:15;;;;;;;1.27;0.90;;;17.40;42.80;;;;;;4875927;29;20737;-42
2022/09/07 02:24:49;;;;;;;1.88;0.80;;;17.50;42.70;;;;;;4907000;23;20228;-45
2022/09/07 02:27:26;;;;;;;1.27;0.80;;;17.50;42.70;;;;;;4895503;29;20706;-57
2022/09/07 02:29:56;;;;;;;1.10;0.77;;;17.50;42.70;;;;;;4895192;29;20203;-39
2022/09/07 02:32:29;;;;;;;0.73;0.70;;;17.50;42.70;;;;;;4894881;29;20208;-50
2022/09/07 02:35:00;;;;;;;1.02;0.75;;;17.60;42.80;;;;;;4895493;29;20229;-52
2022/09/07 02:37:32;;;;;;;1.13;0.73;;;17.60;42.80;;;;;;4894327;29;20211;-52
2022/09/07 02:40:03;;;;;;;1.00;0.80;;;17.60;42.80;;;;;;4876382;29;20205;-55
2022/09/07 02:42:36;;;;;;;1.20;0.82;;;17.70;42.80;;;;;;4887339;29;20793;-44
2022/09/07 02:45:11;;;;;;;1.58;1.00;;;17.70;42.80;;;;;;4894021;29;20221;-50
2022/09/07 02:47:59;;;;;;;1.42;0.80;;;17.70;42.70;;;;;;4893029;29;20283;-54
2022/09/07 02:50:49;;;;;;;1.35;0.82;;;17.70;42.80;;;;;;4893867;29;20204;-37
2022/09/07 02:53:37;;;;;;;1.80;1.10;;;17.70;42.80;;;;;;4893501;29;20205;-40
2022/09/07 02:56:18;;;;;;;1.45;1.10;;;17.70;42.90;;;;;;4885442;29;20244;-49
2022/09/07 02:58:57;;;;;;;1.52;1.40;;;17.80;43.10;;;;;;4889159;29;20205;-44
2022/09/07 03:01:36;;;;;;;2.28;1.77;;;17.80;43.10;;;;;;4893604;29;20653;-56
2022/09/07 03:04:14;;;;;;;2.13;1.70;;;17.80;43.30;;;;;;4893874;29;20203;-42
2022/09/07 03:06:49;;;;;;;2.22;1.75;;;17.80;43.40;;;;;;4893729;29;20704;-52
2022/09/07 03:09:24;;;;;;;3.38;2.25;;;17.90;43.60;;;;;;4878837;29;20224;-53
2022/09/07 03:11:55;;;;;;;2.28;2.08;;;17.90;43.80;;;;;;4875178;29;20287;-48
2022/09/07 03:14:29;;;;;;;2.42;2.00;;;17.90;43.90;;;;;;4893444;29;20201;-52
2022/09/07 03:17:00;;;;;;;2.65;1.98;;;18.00;44.10;;;;;;4894030;29;20685;-45
2022/09/07 03:19:33;;;;;;;2.92;1.75;;;18.00;44.20;;;;;;4890338;29;20196;-56
2022/09/07 03:22:03;;;;;;;3.17;2.00;;;18.00;44.30;;;;;;4872107;29;20202;-56
2022/09/07 03:58:22;;;;;;;3.45;2.60;;;18.20;45.20;;;;;;5047309;23;21094;-35
2022/09/07 04:00:53;;;;;;;3.38;3.08;;;18.20;45.30;;;;;;4948167;28;20226;-37
2022/09/07 04:03:24;;;;;;;3.50;3.15;;;18.20;45.30;;;;;;4953700;28;20527;-37
2022/09/07 04:05:56;;;;;;;3.80;3.50;;;18.20;45.40;;;;;;4944541;28;20619;-35
2022/09/07 04:08:28;;;;;;;3.60;3.05;;;18.20;45.40;;;;;;4927678;29;20208;-35
2022/09/07 04:10:59;;;;;;;4.53;3.80;;;18.30;45.50;;;;;;4916069;29;20207;-35
2022/09/07 04:13:33;;;;;;;4.57;3.90;;;18.20;45.50;;;;;;4915973;29;20243;-35
2022/09/07 04:16:10;;;;;;;3.65;3.30;;;18.20;46.30;;;;;;4916361;29;20236;-35
2022/09/07 04:18:41;;;;;;;4.78;3.65;;;18.30;45.80;;;;;;4915529;29;20645;-35
2022/09/07 04:21:12;;;;;;;5.53;3.53;;;18.30;45.80;;;;;;4914868;29;20211;-35
2022/09/07 04:23:44;;;;;;;4.05;3.30;;;18.30;45.90;;;;;;4928079;23;20200;-36
2022/09/07 04:26:20;;;;;;;4.38;3.15;;;18.30;45.90;;;;;;4883864;29;20237;-46
2022/09/07 04:28:53;;;;;;;3.55;2.83;;;18.30;46.10;;;;;;4877767;29;20201;-46
2022/09/07 04:31:24;;;;;;;3.60;3.08;;;18.30;46.10;;;;;;4878231;29;20209;-36
2022/09/07 04:33:55;;;;;;;3.92;2.90;;;18.30;46.20;;;;;;4877281;29;20205;-40
2022/09/07 04:36:26;;;;;;;4.03;3.22;;;18.40;46.30;;;;;;4877288;29;20233;-48
2022/09/07 04:38:58;;;;;;;5.05;3.20;;;18.30;46.40;;;;;;4877994;29;20209;-40
2022/09/07 04:41:30;;;;;;;2.72;2.45;;;18.30;46.40;;;;;;4877431;29;20209;-47
2022/09/07 04:44:03;;;;;;;3.95;2.70;;;18.40;46.50;;;;;;4878292;29;20661;-51
2022/09/07 04:46:36;;;;;;;3.95;3.03;;;18.40;46.50;;;;;;4878153;29;20225;-40
2022/09/07 04:49:09;;;;;;;4.05;2.97;;;18.40;46.40;;;;;;4877470;29;20197;-40
2022/09/07 04:51:41;;;;;;;2.95;2.65;;;18.40;46.40;;;;;;4878644;29;20258;-57
2022/09/07 04:54:13;;;;;;;3.58;2.88;;;18.30;46.40;;;;;;4877828;29;20812;-56
2022/09/07 04:56:43;;;;;;;3.03;2.72;;;18.30;46.40;;;;;;4878242;29;20229;-38
2022/09/07 04:59:16;;;;;;;2.97;2.67;;;18.40;46.40;;;;;;4877564;29;20205;-56
2022/09/07 05:01:50;;;;;;;3.42;2.78;;;18.40;46.40;;;;;;4877784;29;20205;-50
2022/09/07 05:04:20;;;;;;;6.00;2.95;;;18.30;46.40;;;;;;4860029;29;20210;-41
2022/09/07 05:06:51;;;;;;;4.00;2.90;;;18.40;46.40;;;;;;4858980;29;20222;-43
2022/09/07 05:09:22;;;;;;;3.90;3.05;;;18.30;46.40;;;;;;4873469;29;20202;-43
2022/09/07 05:11:53;;;;;;;3.47;2.60;;;18.40;46.40;;;;;;4876885;29;20224;-57
2022/09/07 05:14:25;;;;;;;4.07;3.00;;;18.30;46.40;;;;;;4877604;29;20197;-57
2022/09/07 05:16:56;;;;;;;4.07;3.00;;;18.30;46.40;;;;;;4876984;29;20260;-48
2022/09/07 05:19:27;;;;;;;4.43;3.13;;;18.30;46.30;;;;;;4877706;29;20221;-57
2022/09/07 05:21:59;;;;;;;3.88;2.90;;;18.30;46.40;;;;;;4877664;29;20205;-53
2022/09/07 05:27:09;;;;;;;3.00;2.58;;;18.30;46.40;;;;;;5270391;23;20290;-33
2022/09/07 05:29:48;;;;;;;3.97;2.95;;;18.30;46.40;;;;;;4932330;28;20615;-34
2022/09/07 05:32:38;;;;;;;4.22;3.05;;;18.30;46.50;;;;;;4931082;28;20549;-34
2022/09/07 05:35:09;;;;;;;4.20;2.90;;;18.30;46.50;;;;;;4912160;29;20580;-35
2022/09/07 05:37:40;;;;;;;5.22;3.10;;;18.30;46.50;;;;;;4895611;29;20237;-38
2022/09/07 05:40:11;;;;;;;3.45;2.85;;;18.30;46.40;;;;;;4895786;29;20204;-42
2022/09/07 05:42:42;;;;;;;5.70;3.53;;;18.30;46.50;;;;;;4888882;29;20205;-46
2022/09/07 05:45:15;;;;;;;3.35;3.05;;;18.20;46.40;;;;;;4876671;29;20225;-44
2022/09/07 05:47:46;;;;;;;5.35;3.55;;;18.30;46.50;;;;;;4877342;29;20205;-34
2022/09/07 05:50:17;;;;;;;4.15;3.17;;;18.20;46.40;;;;;;4876969;29;20205;-37
2022/09/07 05:52:48;;;;;;;3.90;3.15;;;18.20;46.40;;;;;;4876479;29;20206;-34
2022/09/07 05:55:18;;;;;;;3.75;2.97;;;18.20;46.50;;;;;;4877010;29;20257;-35
2022/09/07 05:57:49;;;;;;;3.15;2.85;;;18.10;46.40;;;;;;4877912;29;20274;-34
2022/09/07 06:00:22;;;;;;;4.07;3.42;;;18.10;46.60;;;;;;4885840;29;20201;-38
2022/09/07 06:02:53;;;;;;;3.70;3.25;;;18.10;46.60;;;;;;4895850;29;20197;-33
2022/09/07 06:05:23;;;;;;;3.83;2.80;;;18.10;46.70;;;;;;4895013;29;20217;-34
2022/09/07 06:07:54;;;;;;;3.92;2.70;;;18.10;46.80;;;;;;4895579;29;20204;-33
2022/09/07 06:10:25;;;;;;;3.88;2.70;;;18.10;46.80;;;;;;4894940;29;20215;-33
2022/09/07 06:12:55;;;;;;;4.40;3.00;;;18.00;46.90;;;;;;4894334;29;20196;-33
2022/09/07 06:15:28;;;;;;;4.00;3.13;;;18.00;46.90;;;;;;4895397;29;20603;-36
2022/09/07 06:17:58;;;;;;;3.47;2.90;;;18.00;47.00;;;;;;4895225;29;20225;-40
2022/09/07 06:20:29;;;;;;;3.20;2.88;;;18.00;47.00;;;;;;4895653;29;20208;-34
2022/09/07 06:23:01;;;;;;;3.72;3.20;;;18.00;47.10;;;;;;4894901;29;20240;-33
2022/09/07 06:25:32;;;;;;;3.60;2.92;;;17.90;47.10;;;;;;4908155;23;20257;-35
2022/09/07 06:28:02;;;;;;;3.40;2.90;;;17.90;47.10;;;;;;4895027;29;20233;-39
2022/09/07 06:30:35;;;;;;;3.55;2.88;;;17.90;47.20;;;;;;4899828;29;20567;-58
2022/09/07 06:33:06;;;;;;;3.60;3.13;;;17.80;47.20;;;;;;4886154;29;20201;-55
2022/09/07 06:35:36;;;;;;;4.10;2.75;;;17.80;47.30;;;;;;4876678;29;20218;-39
2022/09/07 06:38:07;;;;;;;4.07;2.88;;;17.80;47.30;;;;;;4881253;29;20213;-38
2022/09/07 06:40:38;;;;;;;3.55;2.95;;;17.80;47.30;;;;;;4894736;29;20201;-44
2022/09/07 06:43:08;;;;;;;3.13;2.83;;;17.70;47.30;;;;;;4895332;29;20207;-36
2022/09/07 06:45:41;;;;;;;3.83;2.97;;;17.70;47.40;;;;;;4894921;29;20225;-35
2022/09/07 06:48:12;;;;;;;3.65;2.92;;;17.70;47.50;;;;;;4894468;29;20197;-37
2022/09/07 06:50:42;;;;;;;3.95;2.83;;;17.70;47.60;;;;;;4894425;29;20201;-36
2022/09/07 06:53:13;;;;;;;3.65;3.10;;;17.60;47.50;;;;;;4894131;29;20200;-39
2022/09/07 06:55:47;;;;;;;3.25;2.63;;;17.60;47.50;;;;;;4878144;29;20217;-39
2022/09/07 06:58:17;;;;;;;3.30;2.70;;;17.60;47.60;;;;;;4876230;29;20208;-47
2022/09/07 07:00:50;;;;;;;4.20;2.75;;;17.60;47.60;;;;;;4875837;29;20205;-47
2022/09/07 07:03:21;;;;;;;4.43;3.08;;;17.60;47.70;;;;;;4876105;29;20198;-40
2022/09/07 07:05:56;;;;;;;4.15;3.17;;;17.50;47.70;;;;;;4875481;29;20225;-36
2022/09/07 07:08:27;;;;;;;5.65;3.95;;;17.50;47.70;;;;;;4882877;29;20862;-41
2022/09/07 07:11:02;;;;;;;7.93;4.97;;;17.50;47.70;;;;;;4894492;29;20208;-53
2022/09/07 07:13:32;;;;;;;6.70;4.60;;;17.50;47.70;;;;;;4894442;29;20208;-44
2022/09/07 07:16:10;;;;;;;5.90;5.05;;;17.40;47.70;;;;;;4894076;29;20228;-47
2022/09/07 07:18:41;;;;;;;7.50;4.90;;;17.40;47.70;;;;;;4896580;29;20207;-59
2022/09/07 07:21:13;;;;;;;8.05;5.03;;;17.40;47.80;;;;;;4894987;29;20215;-49
2022/09/07 07:26:13;;;;;;;7.30;5.28;;;17.30;47.90;;;;;;4915558;29;20262;-34
2022/09/07 07:28:46;;;;;;;6.78;5.05;;;17.30;47.90;;;;;;4917431;29;20204;-41
2022/09/07 07:31:20;;;;;;;7.20;5.28;;;17.30;47.90;;;;;;4916760;29;20547;-35
2022/09/07 07:33:51;;;;;;;8.07;5.30;;;17.20;47.90;;;;;;4917452;29;20768;-34
2022/09/07 07:36:24;;;;;;;7.82;5.20;;;17.20;48.00;;;;;;4916935;29;20587;-34
2022/09/07 07:38:56;;;;;;;8.48;5.65;;;17.20;48.00;;;;;;4905970;29;20216;-37
2022/09/07 07:41:30;;;;;;;8.20;5.97;;;17.10;48.00;;;;;;4902075;29;20196;-37
2022/09/07 07:44:00;;;;;;;7.18;5.13;;;17.10;48.00;;;;;;4897329;29;20240;-34
2022/09/07 07:46:34;;;;;;;8.40;5.70;;;17.10;48.00;;;;;;4897785;29;20227;-38
2022/09/07 07:49:05;;;;;;;9.68;6.00;;;17.10;48.00;;;;;;4896864;29;20220;-36
2022/09/07 07:51:35;;;;;;;8.45;5.82;;;17.10;48.10;;;;;;4896933;29;20201;-36
2022/09/07 07:54:06;;;;;;;8.45;5.90;;;17.00;48.10;;;;;;4896436;29;20208;-34
2022/09/07 07:56:37;;;;;;;7.43;5.97;;;17.00;48.20;;;;;;4897227;29;20275;-34
2022/09/07 07:59:07;;;;;;;7.13;5.50;;;17.00;48.20;;;;;;4916001;29;20207;-34
2022/09/07 08:01:40;;;;;;;8.77;6.15;;;17.00;48.20;;;;;;4915602;29;20196;-34
2022/09/07 08:04:11;;;;;;;8.60;6.30;;;16.90;48.20;;;;;;4915589;29;20207;-34
2022/09/07 08:06:45;;;;;;;7.95;5.65;;;16.90;48.30;;;;;;4915820;29;20224;-34
2022/09/07 08:09:15;;;;;;;7.60;5.25;;;16.90;48.30;;;;;;4901147;29;20205;-35
2022/09/07 08:11:46;;;;;;;8.77;5.68;;;16.90;48.30;;;;;;4896377;29;20200;-34
2022/09/07 08:14:17;;;;;;;8.00;5.80;;;16.90;48.30;;;;;;4897109;29;20204;-34
2022/09/07 08:16:50;;;;;;;11.30;6.55;;;16.80;48.30;;;;;;4897075;29;20228;-36
2022/09/07 08:19:21;;;;;;;8.63;5.85;;;16.80;48.30;;;;;;4896921;29;20212;-34
2022/09/07 08:21:51;;;;;;;10.38;6.57;;;16.80;48.30;;;;;;4896239;29;20205;-34
2022/09/07 08:24:22;;;;;;;7.38;5.25;;;16.80;48.30;;;;;;4916127;23;20215;-36
2022/09/07 08:26:53;;;;;;;7.72;5.72;;;16.80;48.30;;;;;;4915766;29;20227;-36
2022/09/07 08:29:23;;;;;;;8.18;6.00;;;16.70;48.30;;;;;;4915494;29;20204;-38
2022/09/07 08:31:56;;;;;;;8.82;6.15;;;16.70;48.40;;;;;;4915204;29;20204;-38
2022/09/07 08:34:27;;;;;;;8.30;6.07;;;16.70;48.40;;;;;;4914587;29;20200;-35
2022/09/07 08:36:57;;;;;;;8.35;5.90;;;16.70;48.50;;;;;;4915189;29;20231;-36
2022/09/07 08:39:28;;;;;;;8.07;6.13;;;16.60;49.10;;;;;;4899836;29;20208;-35
2022/09/07 08:42:17;;;;;;;7.82;5.88;;;16.60;48.50;;;;;;4897589;29;20506;-35
2022/09/07 08:44:50;;;;;;;9.45;6.13;;;16.60;48.50;;;;;;4914933;29;20637;-38
2022/09/07 08:47:33;;;;;;;9.02;5.93;;;16.60;48.50;;;;;;4914928;29;20204;-36
2022/09/07 08:50:08;;;;;;;8.77;6.18;;;16.60;48.50;;;;;;4914712;29;20200;-36
2022/09/07 08:52:47;;;;;;;8.77;6.15;;;16.60;48.50;;;;;;4914742;29;20226;-34
2022/09/07 08:55:21;;;;;;;8.85;5.68;;;16.60;48.50;;;;;;4914640;29;20299;-39
2022/09/07 08:57:58;;;;;;;7.53;5.60;;;16.50;49.10;;;;;;4912158;29;20241;-37
2022/09/07 09:00:29;;;;;;;9.80;6.30;;;16.50;48.50;;;;;;4894318;29;20208;-36
2022/09/07 09:03:02;;;;;;;7.78;5.82;;;16.50;48.60;;;;;;4896067;29;20668;-35
2022/09/07 09:05:39;;;;;;;9.68;5.72;;;16.50;48.70;;;;;;4895897;29;20225;-35
2022/09/07 09:08:28;;;;;;;10.25;5.90;;;16.40;48.60;;;;;;4895533;29;20211;-34
2022/09/07 09:11:07;;;;;;;8.80;5.63;;;16.40;48.70;;;;;;4897490;29;20193;-34
2022/09/07 09:13:49;;;;;;;8.02;5.80;;;16.40;48.70;;;;;;4908151;29;20260;-34
2022/09/07 09:16:25;;;;;;;9.63;6.13;;;16.40;48.70;;;;;;4915032;29;20227;-36
2022/09/07 09:19:09;;;;;;;9.00;6.03;;;16.40;48.70;;;;;;4914091;29;20228;-36
2022/09/07 09:21:41;;;;;;;9.15;5.97;;;16.30;48.70;;;;;;4914089;29;20252;-38
2022/09/07 09:24:17;;;;;;;6.78;5.45;;;16.30;48.60;;;;;;4914826;29;20215;-44
2022/09/07 09:26:54;;;;;;;10.45;6.32;;;16.30;48.70;;;;;;4914233;29;20303;-41
2022/09/07 09:29:25;;;;;;;7.82;6.03;;;16.30;48.80;;;;;;4913451;29;20204;-43
2022/09/07 09:31:56;;;;;;;7.45;5.45;;;16.30;48.90;;;;;;4913948;29;20207;-40
2022/09/07 09:34:28;;;;;;;11.13;7.22;;;16.30;48.90;;;;;;4914486;29;20207;-51
2022/09/07 09:36:59;;;;;;;13.15;6.63;;;16.20;49.00;;;;;;4913991;29;20232;-43
2022/09/07 09:39:32;;;;;;;8.38;6.60;;;16.20;49.10;;;;;;4898731;29;20209;-44
2022/09/07 09:42:16;;;;;;;8.10;6.20;;;16.20;49.10;;;;;;4895220;29;20282;-41
2022/09/07 09:44:48;;;;;;;8.88;6.18;;;16.20;49.10;;;;;;4876780;29;20201;-37
2022/09/07 09:47:31;;;;;;;10.25;6.25;;;16.20;49.10;;;;;;4876651;29;20650;-46
2022/09/07 09:50:06;;;;;;;9.63;6.20;;;16.20;49.10;;;;;;4877109;29;20244;-42
2022/09/07 09:52:38;;;;;;;8.10;5.90;;;16.10;49.10;;;;;;4876958;29;20646;-40
2022/09/07 09:55:16;;;;;;;11.63;6.82;;;16.10;49.00;;;;;;4876086;29;20221;-53
2022/09/07 09:57:51;;;;;;;9.02;5.65;;;16.10;49.00;;;;;;4883695;29;20219;-57
2022/09/07 10:00:24;;;;;;;8.82;6.18;;;16.10;49.10;;;;;;4894943;29;20291;-55
2022/09/07 10:03:07;;;;;;;10.13;6.32;;;16.10;49.10;;;;;;4893796;29;20236;-53
2022/09/07 10:05:42;;;;;;;10.07;6.45;;;16.00;49.20;;;;;;4895247;29;20213;-52
2022/09/07 10:08:20;;;;;;;8.52;6.25;;;16.00;49.20;;;;;;4894855;29;20208;-56
2022/09/07 10:10:59;;;;;;;7.35;5.88;;;16.00;49.30;;;;;;4895106;29;20193;-40
2022/09/07 10:13:33;;;;;;;10.63;6.63;;;16.00;49.30;;;;;;4895765;29;20204;-56
2022/09/07 10:16:06;;;;;;;9.32;6.00;;;16.00;49.40;;;;;;4895243;29;20224;-54
2022/09/07 10:18:40;;;;;;;8.68;6.20;;;15.90;49.40;;;;;;4895401;29;20711;-50
2022/09/07 10:21:25;;;;;;;9.05;6.50;;;15.90;49.40;;;;;;4894510;29;20205;-56
2022/09/07 11:09:06;;;;;;;7.00;5.40;;;15.70;49.40;;;;;;5709359;23;20672;-35
2022/09/07 11:11:43;;;;;;;7.72;5.80;;;15.70;49.40;;;;;;4911951;29;20208;-34
2022/09/07 11:14:18;;;;;;;7.10;5.03;;;15.70;49.40;;;;;;4895160;29;20273;-34
2022/09/07 11:16:57;;;;;;;8.52;5.47;;;15.60;49.50;;;;;;4912847;29;20231;-42
2022/09/07 11:19:33;;;;;;;7.38;5.40;;;15.60;49.50;;;;;;4914335;29;20208;-35
2022/09/07 11:22:16;;;;;;;7.32;5.13;;;15.60;49.60;;;;;;4914108;29;20208;-43
2022/09/07 11:24:53;;;;;;;7.47;5.97;;;15.60;49.60;;;;;;4924012;23;20231;-45
2022/09/07 11:27:30;;;;;;;8.00;5.22;;;15.60;49.60;;;;;;4894531;29;20593;-43
2022/09/07 11:30:06;;;;;;;6.47;5.00;;;15.60;49.50;;;;;;4894860;29;20216;-54
2022/09/07 11:32:39;;;;;;;7.88;4.82;;;15.60;49.50;;;;;;4893706;29;20197;-52
2022/09/07 11:35:20;;;;;;;6.53;5.03;;;15.60;49.50;;;;;;4880671;29;20315;-57
2022/09/07 11:37:58;;;;;;;6.68;5.28;;;15.60;49.50;;;;;;4875932;29;20237;-40
2022/09/07 11:40:35;;;;;;;6.32;4.90;;;15.60;49.60;;;;;;4875444;29;20555;-58
2022/09/07 11:43:16;;;;;;;7.38;4.90;;;15.50;49.50;;;;;;4875805;29;20213;-49
2022/09/07 11:45:50;;;;;;;6.63;4.88;;;15.50;49.60;;;;;;4875822;29;20728;-57
2022/09/07 11:48:26;;;;;;;7.30;5.07;;;15.50;50.20;;;;;;4875985;29;20201;-55
2022/09/07 11:51:00;;;;;;;7.57;5.20;;;15.50;49.70;;;;;;4875635;29;20308;-57
2022/09/07 11:53:33;;;;;;;7.07;5.00;;;15.50;49.70;;;;;;4874705;29;20214;-35
2022/09/07 11:56:11;;;;;;;8.07;5.28;;;15.50;49.70;;;;;;4876312;29;20694;-39
2022/09/07 11:59:06;;;;;;;6.45;4.93;;;15.50;49.80;;;;;;4875609;29;20226;-38
2022/09/07 12:01:47;;;;;;;6.03;4.80;;;15.40;49.70;;;;;;4874507;29;20813;-38
2022/09/07 12:04:47;;;;;;;6.68;4.60;;;15.40;49.70;;;;;;4875279;29;20237;-48
2022/09/07 12:07:41;;;;;;;9.35;5.03;;;15.40;49.70;;;;;;4875154;29;20237;-45
2022/09/07 12:10:34;;;;;;;5.72;4.70;;;15.40;49.70;;;;;;4888563;29;20201;-48
2022/09/07 12:13:28;;;;;;;6.68;4.68;;;15.40;49.70;;;;;;4896520;29;20796;-45
2022/09/07 12:16:06;;;;;;;6.93;4.43;;;15.40;49.70;;;;;;4896734;29;20225;-43
2022/09/07 12:19:08;;;;;;;7.43;4.95;;;15.40;49.80;;;;;;4896629;29;20228;-46
2022/09/07 12:21:44;;;;;;;6.63;4.45;;;15.40;49.80;;;;;;4895919;29;20238;-48
2022/09/07 12:24:42;;;;;;;6.43;4.20;;;15.30;49.80;;;;;;4907434;23;20200;-35
2022/09/07 12:27:29;;;;;;;7.60;4.43;;;15.30;49.90;;;;;;4877534;29;20205;-34
2022/09/07 12:30:31;;;;;;;6.45;4.45;;;15.30;49.90;;;;;;4877310;29;20210;-34
2022/09/07 12:33:22;;;;;;;6.18;4.05;;;15.30;50.00;;;;;;4872780;29;20216;-34
2022/09/07 12:35:56;;;;;;;6.32;4.63;;;15.20;49.90;;;;;;4877598;29;20221;-34
2022/09/07 12:39:03;;;;;;;4.70;3.90;;;15.30;49.90;;;;;;4877619;29;20535;-34
2022/09/07 12:41:49;;;;;;;6.53;4.40;;;15.20;49.80;;;;;;4858969;29;20202;-34
2022/09/07 12:44:22;;;;;;;6.90;4.18;;;15.20;49.80;;;;;;4858610;29;20703;-35
2022/09/07 12:46:59;;;;;;;5.03;4.05;;;15.20;49.80;;;;;;4858572;29;20233;-34
2022/09/07 12:50:05;;;;;;;6.28;4.40;;;15.20;49.80;;;;;;4858899;29;20206;-35
2022/09/07 12:52:49;;;;;;;5.28;4.35;;;15.20;49.90;;;;;;4858852;29;20249;-34
2022/09/07 12:55:47;;;;;;;5.28;3.92;;;15.20;49.90;;;;;;4871290;29;20237;-34
2022/09/07 12:58:31;;;;;;;5.32;4.10;;;15.20;50.50;;;;;;4877189;29;20468;-34
2022/09/07 13:01:15;;;;;;;8.23;4.30;;;15.20;50.00;;;;;;4877479;29;20206;-36
2022/09/07 13:04:20;;;;;;;5.80;3.95;;;15.20;50.00;;;;;;4876966;29;20424;-34
2022/09/07 13:07:19;;;;;;;5.20;3.75;;;15.10;50.00;;;;;;4855188;29;20742;-34
2022/09/07 13:09:58;;;;;;;5.88;4.18;;;15.10;50.00;;;;;;4872357;29;20198;-34
2022/09/07 13:12:36;;;;;;;5.78;4.28;;;15.10;49.90;;;;;;4877159;29;20253;-34
2022/09/07 13:15:08;;;;;;;7.07;4.22;;;15.10;49.90;;;;;;4877261;29;20316;-34
2022/09/07 13:17:56;;;;;;;5.93;4.03;;;15.10;49.90;;;;;;4877024;29;20244;-39
2022/09/07 13:20:32;;;;;;;5.38;4.30;;;15.10;50.00;;;;;;4876389;29;20611;-34
2022/09/07 13:23:26;;;;;;;5.65;3.97;;;15.10;50.00;;;;;;4878839;29;20229;-34
2022/09/07 13:25:59;;;;;;;6.85;3.95;;;15.10;50.00;;;;;;4905258;23;20239;-41
2022/09/07 13:28:42;;;;;;;5.07;3.88;;;15.00;50.00;;;;;;4895200;29;20197;-39
2022/09/07 13:31:40;;;;;;;4.72;3.55;;;15.00;50.00;;;;;;4895332;29;20204;-55
2022/09/07 13:34:47;;;;;;;5.22;3.95;;;15.00;50.00;;;;;;4895290;29;20212;-49
2022/09/07 13:37:21;;;;;;;4.30;3.65;;;15.00;50.00;;;;;;4895490;29;20208;-35
2022/09/07 13:39:57;;;;;;;4.93;4.00;;;15.00;50.00;;;;;;4883293;29;20232;-44
2022/09/07 13:42:31;;;;;;;4.97;3.90;;;15.00;50.00;;;;;;4875727;29;20568;-50
2022/09/07 13:45:03;;;;;;;4.82;3.90;;;15.00;50.00;;;;;;4876336;29;20597;-38
2022/09/07 13:47:50;;;;;;;4.43;3.70;;;15.00;50.00;;;;;;4876094;29;20627;-35
2022/09/07 13:50:32;;;;;;;5.32;3.90;;;15.00;50.00;;;;;;4876534;29;20224;-43
2022/09/07 13:53:25;;;;;;;5.65;3.58;;;15.00;50.00;;;;;;4876268;29;20205;-39
2022/09/07 13:56:06;;;;;;;5.38;3.65;;;15.00;50.00;;;;;;4890006;29;20236;-45
2022/09/07 13:58:39;;;;;;;4.65;3.20;;;15.00;50.00;;;;;;4894686;29;20725;-35
2022/09/07 14:01:17;;;;;;;4.85;3.83;;;14.90;50.00;;;;;;4895112;29;20225;-49
2022/09/07 14:03:51;;;;;;;4.47;3.53;;;14.90;50.00;;;;;;4894877;29;20193;-50
2022/09/07 14:06:35;;;;;;;5.47;3.55;;;14.90;50.00;;;;;;4894763;29;20217;-44
2022/09/07 14:09:07;;;;;;;5.45;3.53;;;14.90;50.10;;;;;;4881968;29;20212;-36
2022/09/07 14:11:47;;;;;;;4.60;3.42;;;14.90;50.10;;;;;;4857747;29;20262;-37
2022/09/07 14:14:22;;;;;;;4.32;3.58;;;14.90;50.10;;;;;;4857758;29;20206;-42
2022/09/07 14:17:02;;;;;;;4.82;3.67;;;14.90;50.10;;;;;;4856857;29;20753;-40
2022/09/07 14:19:39;;;;;;;5.65;3.88;;;14.90;50.00;;;;;;4856885;29;20232;-39
2022/09/07 14:22:14;;;;;;;4.85;3.92;;;14.90;50.00;;;;;;4857062;29;20236;-48
2022/09/07 15:24:26;;;;;;;5.65;3.20;;;14.60;50.10;;;;;;5859588;23;20195;-38
2022/09/07 15:26:56;;;;;;;3.30;2.80;;;14.70;50.10;;;;;;4874709;29;20717;-33
2022/09/07 15:29:27;;;;;;;4.07;3.15;;;14.60;50.10;;;;;;4875168;29;20232;-34
2022/09/07 15:31:58;;;;;;;5.20;3.47;;;14.70;50.10;;;;;;4874920;29;20209;-34
2022/09/07 15:34:28;;;;;;;4.18;3.15;;;14.70;50.10;;;;;;4874903;29;20198;-33
2022/09/07 15:37:00;;;;;;;3.85;3.05;;;14.70;50.10;;;;;;4874763;29;20433;-35
2022/09/07 15:39:33;;;;;;;3.70;3.15;;;14.60;50.10;;;;;;4890590;29;20237;-33
2022/09/07 15:42:04;;;;;;;3.63;3.00;;;14.60;50.10;;;;;;4874985;29;20209;-34
2022/09/07 15:44:34;;;;;;;4.28;3.40;;;14.60;50.10;;;;;;4875990;29;20202;-33
2022/09/07 15:47:05;;;;;;;4.88;3.50;;;14.60;50.20;;;;;;4880669;29;20202;-34
2022/09/07 15:49:36;;;;;;;4.13;3.30;;;14.60;50.20;;;;;;4878249;29;20232;-33
2022/09/07 15:52:07;;;;;;;4.05;3.00;;;14.50;50.30;;;;;;4878646;29;20414;-33